Time;durP1;ratioP1;P1;durP2;ratioP2;P2;SDS_P1;SDS_P2;PMS_P1;PMS_P2;Temp;Humidity;BMP_temperature;BMP_pressure;BME280_temperature;BME280_humidity;BME280_pressure;Samples;Min_cycle;Max_cycle;Signal;HPM_P1;HPM_P2
2024/01/16 00:02:07;;;;;;;4.30;3.00;;;;;;;;;;4998506;28;20233;-59
2024/01/16 00:04:35;;;;;;;8.63;4.30;;;;;;;;;;5010055;28;20588;-58
2024/01/16 00:07:03;;;;;;;7.83;3.80;;;;;;;;;;5013047;28;20266;-59
2024/01/16 00:09:31;;;;;;;6.07;4.10;;;;;;;;;;4999779;28;20263;-59
2024/01/16 00:11:58;;;;;;;5.17;3.90;;;;;;;;;;4992457;28;20261;-59
2024/01/16 00:14:25;;;;;;;6.73;3.97;;;;;;;;;;4988492;28;20798;-59
2024/01/16 00:16:52;;;;;;;5.80;3.83;;;;;;;;;;4993147;28;20197;-59
2024/01/16 00:19:19;;;;;;;6.60;3.77;;;;;;;;;;4993302;28;20220;-59
2024/01/16 00:21:47;;;;;;;4.37;3.13;;;;;;;;;;4992320;28;20645;-59
2024/01/16 00:24:15;;;;;;;5.57;4.40;;;;;;;;;;4993035;28;20263;-59
2024/01/16 00:26:43;;;;;;;8.93;3.43;;;;;;;;;;5000144;28;20259;-59
2024/01/16 00:29:12;;;;;;;3.87;3.00;;;;;;;;;;4992768;28;20638;-59
2024/01/16 00:31:39;;;;;;;6.37;3.00;;;;;;;;;;4992314;28;20263;-59
2024/01/16 00:34:06;;;;;;;4.60;3.30;;;;;;;;;;5001076;28;20669;-59
2024/01/16 00:36:33;;;;;;;6.07;3.43;;;;;;;;;;5001915;28;20271;-59
2024/01/16 00:39:00;;;;;;;4.40;3.03;;;;;;;;;;5005048;28;20205;-59
2024/01/16 00:41:31;;;;;;;5.47;3.20;;;;;;;;;;5011773;28;20228;-59
2024/01/16 00:43:58;;;;;;;6.27;3.50;;;0.80;99.90;;;;;;5003750;28;20263;-59
2024/01/16 00:46:25;;;;;;;4.53;2.60;;;1.00;99.90;;;;;;4992839;28;20267;-59
2024/01/16 00:48:52;;;;;;;6.63;3.53;;;;;;;;;;4998677;28;20256;-59
2024/01/16 00:51:19;;;;;;;5.00;3.80;;;;;;;;;;4994361;28;20227;-59
2024/01/16 00:53:46;;;;;;;9.57;3.63;;;;;;;;;;4997514;28;20339;-59
2024/01/16 00:56:13;;;;;;;5.13;3.20;;;;;;;;;;5011908;28;20262;-59
2024/01/16 00:58:42;;;;;;;8.00;3.60;;;;;;;;;;5012106;28;20201;-58
2024/01/16 01:01:09;;;;;;;6.93;3.90;;;;;;;;;;4999828;28;20224;-59
2024/01/16 01:03:36;;;;;;;7.97;3.83;;;;;;;;;;4998924;28;20673;-58
2024/01/16 01:06:04;;;;;;;7.50;3.70;;;;;;;;;;4992745;28;20208;-59
2024/01/16 01:08:31;;;;;;;5.47;2.63;;;0.90;99.90;;;;;;4999453;28;20766;-59
2024/01/16 01:10:58;;;;;;;7.00;3.30;;;0.90;99.90;;;;;;5003683;28;20192;-59
2024/01/16 01:13:25;;;;;;;3.67;2.63;;;1.10;99.90;;;;;;5002856;28;20256;-59
2024/01/16 01:15:54;;;;;;;5.37;3.87;;;;;;;;;;5000134;28;20227;-59
2024/01/16 01:18:22;;;;;;;6.43;3.57;;;;;;;;;;4992224;28;20200;-59
2024/01/16 01:20:49;;;;;;;4.30;2.27;;;;;;;;;;4991888;28;20249;-59
2024/01/16 01:23:16;;;;;;;4.53;2.70;;;;;;;;;;4991906;28;20627;-58
2024/01/16 01:25:44;;;;;;;4.63;3.30;;;;;;;;;;4999428;28;20208;-59
2024/01/16 01:28:11;;;;;;;3.27;2.97;;;0.90;99.90;;;;;;4997169;28;20269;-59
2024/01/16 01:30:38;;;;;;;8.17;3.77;;;0.90;99.90;;;;;;5000036;28;20286;-59
2024/01/16 01:33:07;;;;;;;5.20;2.77;;;;;;;;;;5012080;28;20223;-59
2024/01/16 01:35:34;;;;;;;6.93;3.23;;;;;;;;;;4999204;28;20266;-59
2024/01/16 01:38:01;;;;;;;4.53;3.40;;;;;;;;;;4996904;28;20558;-59
2024/01/16 01:40:29;;;;;;;6.27;3.00;;;;;;;;;;5003047;28;20296;-59
2024/01/16 01:42:56;;;;;;;3.60;2.87;;;;;;;;;;5011879;28;20228;-59
2024/01/16 01:45:23;;;;;;;4.67;2.70;;;;;;;;;;4993614;28;20201;-59
2024/01/16 01:47:50;;;;;;;9.07;3.93;;;;;;;;;;4992502;28;20265;-59
2024/01/16 01:50:19;;;;;;;7.23;3.00;;;;;;;;;;4996476;28;20265;-59
2024/01/16 01:52:46;;;;;;;4.80;3.27;;;;;;;;;;5001956;28;20316;-59
2024/01/16 01:55:15;;;;;;;8.23;3.67;;;;;;;;;;5010974;28;20236;-59
2024/01/16 01:57:43;;;;;;;7.90;3.63;;;;;;;;;;5011857;28;20204;-59
2024/01/16 02:00:11;;;;;;;4.97;3.70;;;;;;;;;;5011311;28;20314;-59
2024/01/16 02:02:38;;;;;;;5.97;2.80;;;;;;;;;;5003548;28;20289;-59
2024/01/16 02:05:05;;;;;;;6.30;3.97;;;;;;;;;;5002770;28;20202;-59
2024/01/16 02:07:35;;;;;;;5.20;3.23;;;;;;;;;;5011724;28;20250;-59
2024/01/16 02:10:03;;;;;;;6.70;4.17;;;;;;;;;;5010567;28;20588;-59
2024/01/16 02:12:31;;;;;;;6.63;3.27;;;;;;;;;;5004544;28;20650;-59
2024/01/16 02:14:58;;;;;;;4.97;3.27;;;;;;;;;;5003241;28;20291;-59
2024/01/16 02:17:25;;;;;;;3.37;3.00;;;;;;;;;;5005408;28;20205;-59
2024/01/16 02:19:52;;;;;;;5.67;3.83;;;;;;;;;;4995865;28;20645;-59
2024/01/16 02:22:22;;;;;;;5.00;3.03;;;;;;;;;;4993298;28;20226;-58
2024/01/16 02:24:51;;;;;;;4.77;3.20;;;0.80;99.90;;;;;;4995296;28;20285;-58
2024/01/16 02:27:18;;;;;;;4.87;3.33;;;;;;;;;;4993960;28;20237;-59
2024/01/16 02:29:46;;;;;;;6.03;2.33;;;;;;;;;;5006695;28;20249;-59
2024/01/16 02:32:32;;;;;;;4.97;2.90;;;;;;;;;;5001131;28;20299;-59
2024/01/16 02:34:59;;;;;;;5.97;2.80;;;0.70;99.90;;;;;;5012778;28;20204;-59
2024/01/16 02:37:26;;;;;;;4.27;2.70;;;;;;;;;;5007060;28;20201;-59
2024/01/16 02:39:55;;;;;;;3.20;2.57;;;;;;;;;;5010961;28;20213;-59
2024/01/16 02:42:22;;;;;;;4.90;2.50;;;0.70;99.90;;;;;;5008039;28;20219;-59
2024/01/16 02:44:49;;;;;;;2.63;2.10;;;;;;;;;;5015049;28;20263;-59
2024/01/16 02:47:16;;;;;;;4.43;3.37;;;0.60;99.90;;;;;;5015056;28;20264;-59
2024/01/16 02:49:43;;;;;;;3.53;2.33;;;0.60;99.90;;;;;;5015112;28;20258;-59
2024/01/16 02:52:10;;;;;;;3.20;2.27;;;;;;;;;;5005450;28;20225;-59
2024/01/16 02:54:37;;;;;;;4.03;2.63;;;;;;;;;;5005361;28;20215;-59
2024/01/16 02:57:10;;;;;;;4.23;2.87;;;;;;;;;;5016125;28;20260;-59
2024/01/16 02:59:37;;;;;;;3.70;2.50;;;;;;;;;;5003038;28;20202;-59
2024/01/16 03:02:04;;;;;;;5.93;3.70;;;0.70;99.90;;;;;;5006480;28;20761;-59
2024/01/16 03:04:31;;;;;;;5.47;3.20;;;0.90;99.90;;;;;;5013886;28;20266;-58
2024/01/16 03:06:58;;;;;;;4.17;2.20;;;;;;;;;;5002072;28;20205;-59
2024/01/16 03:09:26;;;;;;;3.30;2.47;;;;;;;;;;5010390;28;20210;-59
2024/01/16 03:11:53;;;;;;;5.97;2.93;;;;;;;;;;5009719;28;20218;-59
2024/01/16 03:14:22;;;;;;;6.73;2.83;;;;;;;;;;4994754;28;20307;-59
2024/01/16 03:16:49;;;;;;;3.77;2.30;;;;;;;;;;4994791;28;20205;-58
2024/01/16 03:19:16;;;;;;;6.50;2.70;;;;;;;;;;4999650;28;20206;-59
2024/01/16 03:21:44;;;;;;;5.07;2.57;;;;;;;;;;5002498;28;20303;-59
2024/01/16 03:24:11;;;;;;;2.90;2.47;;;0.50;99.90;;;;;;4994703;28;20204;-59
2024/01/16 03:26:38;;;;;;;3.40;2.63;;;0.40;99.90;;;;;;4994645;28;20295;-59
2024/01/16 03:29:06;;;;;;;3.47;2.43;;;0.50;99.90;;;;;;4994643;28;20244;-59
2024/01/16 03:31:34;;;;;;;6.93;2.87;;;0.40;99.90;;;;;;4991609;28;20217;-59
2024/01/16 03:34:01;;;;;;;4.03;2.90;;;0.40;99.90;;;;;;5005662;28;20205;-59
2024/01/16 03:36:29;;;;;;;4.00;2.80;;;;;;;;;;5014248;28;20261;-59
2024/01/16 03:38:56;;;;;;;5.70;3.80;;;;;;;;;;5014211;28;20208;-59
2024/01/16 03:41:23;;;;;;;7.03;3.97;;;;;;;;;;5000353;28;20651;-59
2024/01/16 03:43:50;;;;;;;5.40;3.50;;;;;;;;;;4993603;28;20267;-59
2024/01/16 03:46:18;;;;;;;8.10;4.60;;;;;;;;;;5005798;28;20200;-59
2024/01/16 03:48:46;;;;;;;6.87;4.20;;;0.30;99.90;;;;;;5013977;28;20204;-59
2024/01/16 03:51:15;;;;;;;5.60;3.83;;;;;;;;;;5001644;28;20280;-59
2024/01/16 03:53:43;;;;;;;4.50;2.73;;;;;;;;;;4992659;28;20223;-59
2024/01/16 03:56:10;;;;;;;5.77;3.00;;;;;;;;;;4993152;28;20206;-59
2024/01/16 03:58:37;;;;;;;7.23;3.87;;;;;;;;;;5002582;28;20260;-59
2024/01/16 04:01:05;;;;;;;5.40;3.90;;;;;;;;;;5002995;28;20783;-58
2024/01/16 04:03:32;;;;;;;5.67;3.03;;;;;;;;;;4992821;28;20669;-59
2024/01/16 04:06:00;;;;;;;5.17;3.40;;;;;;;;;;5001798;28;20264;-59
2024/01/16 04:08:28;;;;;;;3.70;2.80;;;;;;;;;;4992702;28;20205;-59
2024/01/16 04:10:55;;;;;;;5.73;3.93;;;;;;;;;;5003621;28;20200;-59
2024/01/16 04:13:22;;;;;;;4.93;3.00;;;;;;;;;;5013072;28;20677;-59
2024/01/16 04:15:48;;;;;;;3.83;2.60;;;;;;;;;;5013154;28;20202;-58
2024/01/16 04:18:16;;;;;;;4.50;3.00;;;;;;;;;;5013044;28;20202;-59
2024/01/16 04:20:43;;;;;;;3.33;3.00;;;;;;;;;;5006284;28;20222;-59
2024/01/16 04:23:12;;;;;;;2.70;2.50;;;;;;;;;;5002760;28;20667;-59
2024/01/16 04:25:39;;;;;;;5.30;3.07;;;;;;;;;;5013202;28;20293;-59
2024/01/16 04:28:07;;;;;;;9.23;3.77;;;;;;;;;;5011060;28;20266;-59
2024/01/16 04:30:34;;;;;;;4.73;2.73;;;;;;;;;;5007163;28;20202;-60
2024/01/16 04:33:01;;;;;;;5.40;3.67;;;;;;;;;;4991316;28;20811;-59
2024/01/16 04:35:29;;;;;;;5.70;2.77;;;;;;;;;;5000170;28;20205;-60
2024/01/16 04:37:56;;;;;;;7.00;3.77;;;;;;;;;;4992586;28;20212;-61
2024/01/16 04:40:24;;;;;;;8.80;3.00;;;;;;;;;;4992045;28;20265;-59
2024/01/16 04:42:52;;;;;;;4.20;3.30;;;;;;;;;;4993079;28;20632;-58
2024/01/16 04:45:19;;;;;;;8.40;3.33;;;;;;;;;;5001223;28;20260;-59
2024/01/16 04:47:46;;;;;;;5.63;3.23;;;;;;;;;;4993485;28;20623;-59
2024/01/16 04:50:13;;;;;;;8.87;4.07;;;;;;;;;;4994786;28;20256;-59
2024/01/16 04:52:40;;;;;;;3.63;2.93;;;;;;;;;;4994895;28;20237;-59
2024/01/16 04:55:08;;;;;;;5.43;2.97;;;;;;;;;;4996850;28;20624;-59
2024/01/16 04:57:37;;;;;;;5.77;3.30;;;;;;;;;;4992330;28;20216;-59
2024/01/16 05:00:06;;;;;;;4.67;3.90;;;;;;;;;;4992389;28;20255;-59
2024/01/16 05:02:34;;;;;;;6.87;3.97;;;;;;;;;;4994516;28;20246;-59
2024/01/16 05:05:01;;;;;;;6.83;3.67;;;;;;;;;;4992586;28;20232;-60
2024/01/16 05:07:28;;;;;;;7.20;3.90;;;;;;;;;;4992618;28;20229;-59
2024/01/16 05:09:56;;;;;;;8.00;4.07;;;;;;;;;;4992683;28;20202;-59
2024/01/16 05:12:23;;;;;;;3.57;2.80;;;;;;;;;;4991363;28;20213;-59
2024/01/16 05:14:52;;;;;;;7.73;4.40;;;;;;;;;;4992405;28;20297;-59
2024/01/16 05:17:19;;;;;;;4.27;3.30;;;;;;;;;;4992553;28;20201;-58
2024/01/16 05:19:46;;;;;;;5.93;3.03;;;;;;;;;;4992372;28;20261;-59
2024/01/16 05:22:13;;;;;;;3.63;3.33;;;;;;;;;;4991206;28;20229;-59
2024/01/16 05:24:40;;;;;;;7.40;3.77;;;;;;;;;;4992401;28;20207;-59
2024/01/16 05:27:09;;;;;;;5.63;2.83;;;;;;;;;;4992386;28;20203;-59
2024/01/16 05:29:37;;;;;;;6.00;3.57;;;;;;;;;;4989003;28;20210;-59
2024/01/16 05:32:09;;;;;;;7.10;3.33;;;;;;;;;;4991280;28;20217;-59
2024/01/16 05:34:37;;;;;;;6.80;3.50;;;;;;;;;;4991998;28;20285;-59
2024/01/16 05:37:04;;;;;;;4.87;3.93;;;;;;;;;;4992530;28;20203;-59
2024/01/16 05:39:31;;;;;;;6.37;3.83;;;;;;;;;;4992503;28;20198;-59
2024/01/16 05:41:58;;;;;;;7.30;4.80;;;;;;;;;;4994076;28;20222;-59
2024/01/16 05:44:26;;;;;;;11.30;4.43;;;;;;;;;;4995595;28;20203;-58
2024/01/16 05:46:53;;;;;;;7.73;5.63;;;;;;;;;;4995934;28;20646;-58
2024/01/16 05:49:22;;;;;;;9.50;4.83;;;;;;;;;;4996373;28;20274;-58
2024/01/16 05:51:49;;;;;;;6.77;3.93;;;;;;;;;;4997886;28;20217;-58
2024/01/16 05:54:16;;;;;;;7.00;4.63;;;;;;;;;;4996128;28;20261;-58
2024/01/16 05:56:43;;;;;;;8.40;5.80;;;;;;;;;;4994095;28;20201;-58
2024/01/16 05:59:10;;;;;;;6.40;4.77;;;;;;;;;;4995979;28;20209;-58
2024/01/16 06:01:38;;;;;;;5.77;4.80;;;;;;;;;;4997065;28;20228;-57
2024/01/16 06:04:06;;;;;;;6.20;5.17;;;;;;;;;;4996060;28;20280;-58
2024/01/16 06:06:34;;;;;;;8.13;5.60;;;;;;;;;;4995925;28;20609;-58
2024/01/16 06:09:05;;;;;;;7.33;5.30;;;;;;;;;;4996122;28;20205;-60
2024/01/16 06:11:32;;;;;;;8.20;6.10;;;;;;;;;;4997174;28;20228;-58
2024/01/16 06:14:00;;;;;;;8.77;5.27;;;;;;;;;;4995453;28;20293;-57
2024/01/16 06:16:27;;;;;;;9.67;5.90;;;;;;;;;;4995650;28;20292;-58
2024/01/16 06:18:54;;;;;;;9.33;5.57;;;;;;;;;;4995978;28;20209;-58
2024/01/16 06:21:21;;;;;;;10.27;5.53;;;;;;;;;;4996435;28;20231;-57
2024/01/16 06:23:50;;;;;;;9.13;5.80;;;;;;;;;;4995184;28;20658;-58
2024/01/16 06:26:17;;;;;;;8.20;4.37;;;;;;;;;;4991330;28;20284;-58
2024/01/16 06:28:44;;;;;;;7.77;5.20;;;;;;;;;;4992800;28;20264;-58
2024/01/16 06:31:12;;;;;;;9.33;5.47;;;;;;;;;;4997238;28;20649;-58
2024/01/16 06:33:39;;;;;;;8.83;5.73;;;;;;;;;;4993281;28;20221;-60
2024/01/16 06:36:07;;;;;;;11.53;7.10;;;;;;;;;;4995550;28;20232;-58
2024/01/16 06:38:34;;;;;;;9.60;5.80;;;;;;;;;;4996562;28;20205;-58
2024/01/16 06:41:03;;;;;;;11.27;5.37;;;;;;;;;;4993446;28;20267;-58
2024/01/16 06:43:30;;;;;;;9.10;7.10;;;;;;;;;;4996629;28;20205;-58
2024/01/16 06:45:58;;;;;;;12.40;7.33;;;;;;;;;;4992360;28;20567;-58
2024/01/16 06:48:26;;;;;;;9.90;6.40;;;;;;;;;;4995107;28;20207;-59
2024/01/16 06:50:53;;;;;;;11.80;7.13;;;;;;;;;;4993602;28;20209;-58
2024/01/16 06:53:21;;;;;;;10.67;6.40;;;;;;;;;;4994288;28;20197;-58
2024/01/16 06:55:48;;;;;;;14.20;7.53;;;;;;;;;;4988596;28;20256;-58
2024/01/16 06:58:17;;;;;;;13.57;7.57;;;;;;;;;;4984770;28;20209;-58
2024/01/16 07:00:44;;;;;;;12.07;6.73;;;;;;;;;;4985328;28;20567;-57
2024/01/16 07:03:12;;;;;;;11.70;7.37;;;;;;;;;;4994660;28;20227;-58
2024/01/16 07:05:40;;;;;;;16.37;8.97;;;;;;;;;;4992041;28;20203;-58
2024/01/16 07:08:07;;;;;;;11.37;6.77;;;;;;;;;;4994639;28;20236;-60
2024/01/16 07:10:35;;;;;;;6.97;6.17;;;;;;;;;;4993804;28;20263;-58
2024/01/16 07:13:03;;;;;;;14.47;7.50;;;;;;;;;;4986759;28;20752;-58
2024/01/16 07:15:31;;;;;;;13.93;8.07;;;;;;;;;;4994504;28;20213;-57
2024/01/16 07:17:58;;;;;;;13.20;7.10;;;;;;;;;;4992828;28;20583;-58
2024/01/16 07:20:25;;;;;;;14.47;8.03;;;;;;;;;;4993600;28;20261;-58
2024/01/16 07:22:53;;;;;;;8.83;6.63;;;;;;;;;;4994102;28;20282;-58
2024/01/16 07:25:20;;;;;;;13.07;7.87;;;;;;;;;;4994624;28;20197;-58
2024/01/16 07:27:49;;;;;;;14.90;7.60;;;;;;;;;;4993357;28;20206;-57
2024/01/16 07:30:17;;;;;;;10.27;7.07;;;;;;;;;;4993452;28;20285;-58
2024/01/16 07:32:45;;;;;;;14.17;6.80;;;;;;;;;;4994085;28;20275;-57
2024/01/16 07:35:13;;;;;;;10.70;7.73;;;;;;;;;;4993333;28;20334;-58
2024/01/16 07:37:40;;;;;;;13.60;7.63;;;;;;;;;;4994142;28;20726;-58
2024/01/16 07:40:09;;;;;;;11.23;6.50;;;;;;;;;;4994254;28;20207;-58
2024/01/16 07:42:36;;;;;;;13.88;7.13;;;;;;;;;;4995844;28;20503;-59
2024/01/16 07:45:05;;;;;;;9.23;6.67;;;;;;;;;;4989899;28;20205;-57
2024/01/16 07:47:32;;;;;;;14.07;7.10;;;;;;;;;;4993192;28;20284;-60
2024/01/16 07:50:01;;;;;;;13.20;7.53;;;;;;;;;;4999947;28;20210;-61
2024/01/16 07:52:29;;;;;;;14.47;7.33;;;;;;;;;;5003281;28;20219;-65
2024/01/16 07:54:56;;;;;;;15.27;8.07;;;;;;;;;;4995113;28;20245;-59
2024/01/16 07:57:23;;;;;;;12.03;6.67;;;;;;;;;;5007673;28;20569;-58
2024/01/16 07:59:50;;;;;;;11.50;7.37;;;;;;;;;;5000038;28;20248;-59
2024/01/16 08:02:17;;;;;;;10.70;6.57;;;;;;;;;;4992201;28;20692;-60
2024/01/16 08:04:45;;;;;;;14.93;7.97;;;;;;;;;;4993785;28;20201;-61
2024/01/16 08:07:14;;;;;;;13.73;7.73;;;;;;;;;;4993660;28;20197;-61
2024/01/16 08:09:41;;;;;;;9.83;6.33;;;;;;;;;;4993899;28;20206;-61
2024/01/16 08:12:11;;;;;;;13.90;8.93;;;;;;;;;;4992956;28;20277;-66
2024/01/16 08:14:39;;;;;;;16.27;9.37;;;;;;;;;;4992972;28;20202;-65
2024/01/16 08:17:09;;;;;;;15.60;8.97;;;;;;;;;;4993256;28;20198;-67
2024/01/16 08:19:37;;;;;;;10.77;7.90;;;;;;;;;;4993435;28;20208;-67
2024/01/16 08:22:04;;;;;;;14.37;9.00;;;;;;;;;;4992824;28;20656;-65
2024/01/16 08:24:33;;;;;;;15.33;8.43;;;;;;;;;;4991691;28;20217;-58
2024/01/16 08:27:00;;;;;;;17.37;8.57;;;;;;;;;;4995554;28;20221;-58
2024/01/16 08:29:27;;;;;;;14.90;8.87;;;;;;;;;;4991670;28;20235;-58
2024/01/16 08:31:55;;;;;;;17.90;10.30;;;;;;;;;;4999775;28;20588;-58
2024/01/16 08:34:22;;;;;;;15.43;10.13;;;;;;;;;;4991039;28;20226;-58
2024/01/16 08:36:49;;;;;;;14.07;8.37;;;;;;;;;;4990937;28;20211;-58
2024/01/16 08:39:17;;;;;;;13.27;7.70;;;;;;;;;;4995448;28;21941;-58
2024/01/16 08:41:45;;;;;;;13.43;7.63;;;;;;;;;;4999067;28;20255;-58
2024/01/16 08:44:12;;;;;;;14.07;8.70;;;;;;;;;;4999852;28;20214;-58
2024/01/16 08:46:40;;;;;;;10.70;6.90;;;;;;;;;;4998635;28;20631;-58
2024/01/16 08:49:07;;;;;;;11.53;6.90;;;;;;;;;;4993015;28;20201;-58
2024/01/16 08:51:36;;;;;;;13.23;7.73;;;;;;;;;;4998032;28;20225;-58
2024/01/16 08:54:03;;;;;;;13.13;7.70;;;;;;;;;;4997102;28;20271;-58
2024/01/16 08:56:30;;;;;;;10.83;6.77;;;;;;;;;;4992848;28;20197;-58
2024/01/16 08:58:59;;;;;;;12.70;6.53;;;;;;;;;;4993990;28;20306;-59
2024/01/16 09:01:26;;;;;;;10.83;6.63;;;;;;;;;;4996274;28;20232;-58
2024/01/16 09:03:55;;;;;;;10.80;6.80;;;;;;;;;;4999317;28;20233;-58
2024/01/16 09:06:22;;;;;;;9.40;6.00;;;;;;;;;;5001597;28;20578;-58
2024/01/16 09:08:49;;;;;;;8.40;5.80;;;;;;;;;;4999620;28;20287;-58
2024/01/16 09:11:16;;;;;;;9.03;5.03;;;;;;;;;;5000496;28;20862;-58
2024/01/16 09:13:44;;;;;;;11.00;5.17;;;;;;;;;;4999902;28;20203;-58
2024/01/16 09:16:13;;;;;;;12.23;4.87;;;;;;;;;;4992236;28;20288;-58
2024/01/16 09:18:40;;;;;;;7.97;4.40;;;;;;;;;;4992052;28;20275;-58
2024/01/16 09:21:07;;;;;;;8.13;4.57;;;;;;;;;;5003248;28;20263;-58
2024/01/16 09:23:34;;;;;;;6.93;4.50;;;;;;;;;;5010830;28;20787;-58
2024/01/16 09:26:02;;;;;;;6.70;4.43;;;;;;;;;;5011538;28;20204;-58
2024/01/16 09:28:29;;;;;;;10.20;5.23;;;;;;;;;;4992121;28;20632;-59
2024/01/16 09:30:57;;;;;;;8.47;4.80;;;;;;;;;;4991393;28;20294;-59
2024/01/16 09:33:26;;;;;;;4.03;3.47;;;;;;;;;;4992349;28;20288;-59
2024/01/16 09:35:53;;;;;;;7.63;4.40;;;;;;;;;;4992205;28;20288;-59
2024/01/16 09:38:20;;;;;;;10.50;4.27;;;;;;;;;;4992838;28;20640;-58
2024/01/16 09:40:50;;;;;;;8.27;4.63;;;;;;;;;;4991656;28;20752;-58
2024/01/16 09:43:17;;;;;;;6.80;4.77;;;;;;;;;;4992441;28;20649;-59
2024/01/16 09:45:45;;;;;;;8.47;5.20;;;;;;;;;;4991519;28;20554;-59
2024/01/16 09:48:13;;;;;;;5.17;3.90;;;;;;;;;;4997417;28;20256;-59
2024/01/16 09:50:42;;;;;;;6.00;4.10;;;;;;;;;;4999935;28;20674;-59
2024/01/16 09:53:10;;;;;;;5.60;4.13;;;;;;;;;;5002143;28;20302;-58
2024/01/16 09:55:37;;;;;;;9.60;5.23;;;;;;;;;;4995089;28;20205;-56
2024/01/16 09:58:06;;;;;;;6.33;4.57;;;;;;;;;;4987254;28;20207;-57
2024/01/16 10:00:34;;;;;;;6.47;3.77;;;;;;;;;;4994683;28;20220;-56
2024/01/16 10:03:01;;;;;;;8.13;5.03;;;;;;;;;;4991270;28;20225;-56
2024/01/16 10:05:29;;;;;;;7.10;4.97;;;;;;;;;;4991869;28;20203;-56
2024/01/16 10:07:57;;;;;;;7.53;4.93;;;;;;;;;;4991648;28;20210;-59
2024/01/16 10:10:28;;;;;;;5.30;3.83;;;;;;;;;;4991870;28;20658;-56
2024/01/16 10:12:56;;;;;;;6.93;4.63;;;;;;;;;;4991310;28;20313;-59
2024/01/16 10:15:24;;;;;;;4.90;4.47;;;;;;;;;;4991622;28;20301;-59
2024/01/16 10:17:52;;;;;;;6.87;3.73;;;;;;;;;;4991314;28;20202;-58
2024/01/16 10:20:33;;;;;;;5.60;3.27;;;;;;;;;;4990993;28;20285;-59
2024/01/16 10:23:03;;;;;;;7.13;4.43;;;;;;;;;;4990949;28;20231;-59
2024/01/16 10:25:31;;;;;;;5.03;4.30;;;;;;;;;;4991589;28;20217;-59
2024/01/16 10:28:04;;;;;;;7.07;3.57;;;;;;;;;;4991564;28;20578;-59
2024/01/16 10:30:32;;;;;;;5.17;4.20;;;;;;;;;;4994209;28;20224;-58
2024/01/16 10:33:13;;;;;;;4.00;3.70;;;;;;;;;;4995246;28;20232;-58
2024/01/16 10:35:41;;;;;;;8.77;4.45;;;;;;;;;;4991381;28;20464;-58
2024/01/16 10:38:09;;;;;;;5.93;3.80;;;;;;;;;;4990326;28;20624;-59
2024/01/16 10:40:36;;;;;;;14.90;4.47;;;;;;;;;;4991805;28;20200;-59
2024/01/16 10:43:04;;;;;;;5.10;4.03;;;;;;;;;;4984882;28;20377;-57
2024/01/16 10:45:32;;;;;;;4.93;4.03;;;;;;;;;;4995026;28;20249;-57
2024/01/16 10:48:03;;;;;;;9.20;4.60;;;;;;;;;;4994882;28;20609;-57
2024/01/16 10:50:31;;;;;;;7.30;5.13;;;;;;;;;;4993880;28;20202;-57
2024/01/16 10:53:01;;;;;;;9.47;4.37;;;;;;;;;;4994395;28;20257;-57
2024/01/16 10:55:30;;;;;;;5.93;4.40;;;;;;;;;;4993199;28;20629;-57
2024/01/16 10:57:59;;;;;;;6.77;4.40;;;;;;;;;;4994318;28;20269;-57
2024/01/16 11:00:26;;;;;;;6.73;5.53;;;;;;;;;;4992219;28;20205;-57
2024/01/16 11:02:58;;;;;;;5.93;4.57;;;;;;;;;;4992079;28;20669;-57
2024/01/16 11:05:27;;;;;;;4.90;4.40;;;;;;;;;;4988688;28;20205;-57
2024/01/16 11:07:55;;;;;;;5.20;4.70;;;;;;;;;;4993186;28;20214;-60
2024/01/16 11:10:24;;;;;;;8.27;4.73;;;;;;;;;;4994185;28;20265;-58
2024/01/16 11:12:54;;;;;;;4.60;4.13;;;;;;;;;;4996062;28;20300;-57
2024/01/16 11:15:21;;;;;;;9.43;4.83;;;;;;;;;;4994540;28;20585;-57
2024/01/16 11:17:49;;;;;;;7.20;4.93;;;;;;;;;;4994425;28;20206;-57
2024/01/16 11:20:17;;;;;;;7.93;4.57;;;;;;;;;;4993586;28;20294;-57
2024/01/16 11:22:45;;;;;;;5.13;3.13;;;;;;;;;;4994208;28;20226;-57
2024/01/16 11:25:13;;;;;;;8.20;4.40;;;;;;;;;;4993882;28;20262;-57
2024/01/16 11:27:41;;;;;;;4.47;4.07;;;;;;;;;;4995353;28;20257;-57
2024/01/16 11:30:13;;;;;;;7.97;4.27;;;;;;;;;;4999017;28;20630;-57
2024/01/16 11:32:41;;;;;;;9.47;4.47;;;;;;;;;;5002250;28;20297;-57
2024/01/16 11:35:08;;;;;;;11.27;4.33;;;;;;;;;;4999988;28;20681;-57
2024/01/16 11:37:37;;;;;;;6.03;4.40;;;;;;;;;;4994238;28;20259;-57
2024/01/16 11:40:24;;;;;;;4.50;3.67;;;;;;;;;;4997460;28;20853;-58
2024/01/16 11:42:52;;;;;;;8.63;4.60;;;;;;;;;;4993320;28;20645;-58
2024/01/16 11:45:38;;;;;;;5.30;4.50;;;;;;;;;;4999623;28;20210;-58
2024/01/16 11:48:13;;;;;;;5.97;4.10;;;;;;;;;;4996334;28;20206;-62
2024/01/16 11:50:41;;;;;;;5.17;4.53;;;;;;;;;;4995818;28;20570;-61
2024/01/16 11:53:08;;;;;;;7.13;4.63;;;;;;;;;;4999792;28;20225;-61
2024/01/16 11:55:36;;;;;;;8.37;4.37;;;;;;;;;;4994617;28;20206;-60
2024/01/16 11:58:21;;;;;;;6.57;4.67;;;;;;;;;;4994000;28;20734;-64
2024/01/16 12:00:51;;;;;;;8.77;4.90;;;;;;;;;;4992506;28;20300;-67
2024/01/16 12:03:21;;;;;;;6.30;4.70;;;;;;;;;;4993605;28;20217;-65
2024/01/16 12:05:56;;;;;;;6.93;4.83;;;;;;;;;;4993852;28;20258;-65
2024/01/16 12:08:24;;;;;;;7.30;4.70;;;;;;;;;;4993760;28;20614;-65
2024/01/16 12:10:51;;;;;;;5.00;4.33;;;;;;;;;;4992597;28;20198;-66
2024/01/16 12:13:18;;;;;;;8.63;5.60;;;;;;;;;;4993022;28;20207;-67
2024/01/16 12:15:46;;;;;;;8.17;5.27;;;;;;;;;;4993554;28;20210;-67
2024/01/16 12:18:19;;;;;;;7.47;4.83;;;;;;;;;;4993088;28;20208;-66
2024/01/16 12:20:48;;;;;;;6.70;5.03;;;;;;;;;;4992036;28;20205;-65
2024/01/16 12:23:15;;;;;;;4.53;4.00;;;;;;;;;;4992857;28;20222;-66
2024/01/16 12:25:42;;;;;;;7.50;4.10;;;;;;;;;;4992935;28;20671;-65
2024/01/16 12:28:10;;;;;;;4.30;3.90;;;;;;;;;;4994542;28;20201;-64
2024/01/16 12:30:38;;;;;;;5.77;5.17;;;;;;;;;;4992550;28;20199;-65
2024/01/16 12:33:07;;;;;;;5.77;4.20;;;;;;;;;;4992815;28;20258;-66
2024/01/16 12:35:35;;;;;;;5.20;4.50;;;;;;;;;;4992947;28;20238;-65
2024/01/16 12:38:05;;;;;;;4.60;3.40;;;;;;;;;;4993115;28;20237;-65
2024/01/16 12:40:33;;;;;;;4.87;4.27;;;;;;;;;;4992480;28;20224;-67
2024/01/16 12:43:00;;;;;;;6.13;3.57;;;;;;;;;;4991000;28;20256;-62
2024/01/16 12:45:28;;;;;;;5.17;3.87;;;;;;;;;;4992735;28;20272;-63
2024/01/16 12:47:57;;;;;;;4.63;3.57;;;;;;;;;;4996703;28;20217;-64
2024/01/16 12:50:25;;;;;;;5.17;3.33;;;;;;;;;;4992210;28;20203;-63
2024/01/16 12:53:03;;;;;;;4.57;3.90;;;;;;;;;;4991872;28;20277;-63
2024/01/16 12:55:32;;;;;;;7.47;3.70;;;;;;;;;;4992844;28;20632;-64
2024/01/16 12:58:15;;;;;;;2.93;2.73;;;;;;;;;;4984691;28;20202;-64
2024/01/16 13:00:42;;;;;;;4.20;3.43;;;;;;;;;;4992301;28;20214;-65
2024/01/16 13:03:16;;;;;;;4.67;3.60;;;;;;;;;;4992524;28;20225;-66
2024/01/16 13:05:43;;;;;;;4.77;3.63;;;;;;;;;;4993731;28;20232;-66
2024/01/16 13:08:11;;;;;;;5.00;3.97;;;;;;;;;;4992136;28;20207;-66
2024/01/16 13:10:40;;;;;;;4.73;3.57;;;;;;;;;;4991548;28;20255;-65
2024/01/16 13:13:14;;;;;;;4.47;4.07;;;;;;;;;;4992298;28;20222;-66
2024/01/16 13:15:41;;;;;;;4.00;3.20;;;;;;;;;;4992332;28;20208;-65
2024/01/16 13:18:18;;;;;;;4.07;3.37;;;;;;;;;;4998979;28;20260;-68
2024/01/16 13:20:46;;;;;;;4.73;3.47;;;;;;;;;;4998612;28;20297;-69
2024/01/16 13:23:14;;;;;;;6.20;4.83;;;;;;;;;;4992909;28;20684;-68
2024/01/16 13:25:45;;;;;;;7.70;4.67;;;;;;;;;;5000440;28;20246;-68
2024/01/16 13:28:13;;;;;;;6.00;5.17;;;;;;;;;;4997448;28;20734;-68
2024/01/16 13:30:41;;;;;;;9.30;4.73;;;;;;;;;;4999134;28;20205;-65
2024/01/16 13:33:08;;;;;;;5.93;4.33;;;;;;;;;;4993437;28;20226;-65
2024/01/16 13:35:37;;;;;;;7.73;5.37;;;;;;;;;;4992354;28;20745;-66
2024/01/16 13:38:04;;;;;;;5.67;4.43;;;;;;;;;;4997395;28;20209;-66
2024/01/16 13:40:32;;;;;;;9.67;5.27;;;;;;;;;;4996412;28;21218;-64
2024/01/16 13:43:01;;;;;;;6.60;4.50;;;;;;;;;;4988054;28;20308;-64
2024/01/16 13:45:28;;;;;;;7.10;3.87;;;;;;;;;;4991862;28;20257;-64
2024/01/16 13:47:56;;;;;;;5.10;4.60;;;;;;;;;;4990583;28;20247;-59
2024/01/16 13:50:23;;;;;;;6.10;5.20;;;;;;;;;;4990893;28;20260;-60
2024/01/16 13:52:51;;;;;;;5.17;4.57;;;;;;;;;;4991313;28;20601;-60
2024/01/16 13:55:19;;;;;;;9.83;5.80;;;;;;;;;;4991758;28;20268;-60
2024/01/16 13:57:47;;;;;;;8.93;4.70;;;;;;;;;;4991991;28;20729;-60
2024/01/16 14:00:16;;;;;;;8.37;4.77;;;;;;;;;;4991363;28;20204;-60
2024/01/16 14:02:45;;;;;;;9.57;5.93;;;;;;;;;;5001332;28;20226;-61
2024/01/16 14:05:15;;;;;;;6.97;5.53;;;;;;;;;;4994775;28;20264;-68
2024/01/16 14:07:43;;;;;;;6.80;5.33;;;;;;;;;;4995815;28;20211;-68
2024/01/16 14:10:12;;;;;;;8.03;6.30;;;;;;;;;;4995949;28;20234;-65
2024/01/16 14:12:39;;;;;;;8.33;5.73;;;;;;;;;;4995232;28;20264;-66
2024/01/16 14:15:15;;;;;;;7.13;5.47;;;;;;;;;;4995816;28;20563;-66
2024/01/16 14:17:44;;;;;;;8.77;6.03;;;;;;;;;;4992842;28;20222;-65
2024/01/16 14:20:12;;;;;;;8.47;6.10;;;;;;;;;;4995845;28;20210;-65
2024/01/16 14:22:39;;;;;;;9.60;6.10;;;;;;;;;;5007614;28;20221;-66
2024/01/16 14:25:10;;;;;;;10.80;5.67;;;;;;;;;;4996179;28;20253;-65
2024/01/16 14:27:38;;;;;;;7.53;5.57;;;;;;;;;;4997404;28;20289;-62
2024/01/16 14:30:07;;;;;;;7.40;5.20;;;;;;;;;;4996718;28;20202;-62
2024/01/16 14:32:34;;;;;;;8.50;5.60;;;;;;;;;;5003069;28;20222;-63
2024/01/16 14:35:04;;;;;;;10.30;5.37;;;;;;;;;;4996055;28;20270;-62
2024/01/16 14:37:31;;;;;;;9.67;6.50;;;;;;;;;;4999996;28;20732;-61
2024/01/16 14:40:00;;;;;;;8.33;5.37;;;;;;;;;;4996431;28;20889;-61